Time;durP1;ratioP1;P1;durP2;ratioP2;P2;SDS_P1;SDS_P2;PMS_P1;PMS_P2;Temp;Humidity;BMP_temperature;BMP_pressure;BME280_temperature;BME280_humidity;BME280_pressure;Samples;Min_cycle;Max_cycle;Signal;HPM_P1;HPM_P2
2023/01/21 00:00:48;;;;;;;;;;;;;;;15.57;52.78;102935.75;2101997;28;19965;-53
2023/01/21 00:01:51;;;;;;;;;;;;;;;15.57;52.94;102936.53;2111489;28;19928;-52
2023/01/21 00:02:52;;;;;;;;;;;;;;;15.57;52.91;102939.25;2113081;28;19934;-53
2023/01/21 00:03:55;;;;;;;;;;;;;;;15.58;52.77;102942.78;2113018;28;19935;-53
2023/01/21 00:04:56;;;;;;;;;;;;;;;15.57;52.85;102944.69;2120514;28;19928;-52
2023/01/21 00:05:59;;;;;;;;;;;;;;;15.57;52.82;102950.13;2116867;28;20302;-53
2023/01/21 00:07:01;;;;;;;;;;;;;;;15.57;52.94;102944.69;2113548;28;20697;-51
2023/01/21 00:08:03;;;;;;;;;;;;;;;15.56;52.99;102948.56;2114151;28;19928;-55
2023/01/21 00:09:07;;;;;;;;;;;;;;;15.57;52.89;102949.34;2113586;28;19927;-52
2023/01/21 00:10:10;;;;;;;;;;;;;;;15.56;52.83;102948.56;2113911;28;19931;-52
2023/01/21 00:11:13;;;;;;;;;;;;;;;15.57;52.83;102949.34;2113989;28;20311;-53
2023/01/21 00:12:15;;;;;;;;;;;;;;;15.57;52.96;102949.34;2113901;28;19923;-52
2023/01/21 00:13:17;;;;;;;;;;;;;;;15.57;52.88;102938.47;2113439;28;20391;-53
2023/01/21 00:14:20;;;;;;;;;;;;;;;15.56;52.62;102939.56;2117487;28;19934;-54
2023/01/21 00:15:21;;;;;;;;;;;;;;;15.57;52.83;102941.19;2117781;28;19932;-51
2023/01/21 00:16:24;;;;;;;;;;;;;;;15.56;52.74;102937.66;2113673;28;19935;-54
2023/01/21 00:17:25;;;;;;;;;;;;;;;15.56;52.88;102937.66;2115518;28;19935;-53
2023/01/21 00:18:28;;;;;;;;;;;;;;;15.56;52.97;102948.56;2115164;28;19932;-52
2023/01/21 00:19:30;;;;;;;;;;;;;;;15.56;52.89;102943.09;2114702;28;19928;-53
2023/01/21 00:20:33;;;;;;;;;;;;;;;15.56;52.82;102943.09;2114837;28;19932;-53
2023/01/21 00:21:35;;;;;;;;;;;;;;;15.56;52.92;102948.56;2115728;28;19924;-49
2023/01/21 00:22:37;;;;;;;;;;;;;;;15.56;52.95;102937.66;2115361;28;19928;-53
2023/01/21 00:23:39;;;;;;;;;;;;;;;15.56;52.97;102937.66;2114189;28;19950;-52
2023/01/21 00:24:43;;;;;;;;;;;;;;;15.56;52.65;102942.28;2114150;28;19935;-54
2023/01/21 00:25:45;;;;;;;;;;;;;;;15.56;52.86;102945.81;2114550;28;19924;-53
2023/01/21 00:26:47;;;;;;;;;;;;;;;15.56;52.82;102943.09;2114641;28;19928;-53
2023/01/21 00:27:49;;;;;;;;;;;;;;;15.56;52.95;102945.00;2114644;28;19938;-52
2023/01/21 00:28:52;;;;;;;;;;;;;;;15.56;52.79;102948.56;2114437;28;19935;-52
2023/01/21 00:29:53;;;;;;;;;;;;;;;15.55;52.83;102946.97;2114542;28;19934;-52
2023/01/21 00:30:57;;;;;;;;;;;;;;;15.56;52.77;102953.19;2114442;28;19931;-53
2023/01/21 00:31:58;;;;;;;;;;;;;;;15.56;52.79;102951.28;2115063;28;19946;-52
2023/01/21 00:33:01;;;;;;;;;;;;;;;15.55;52.75;102946.97;2105174;28;21000;-50
2023/01/21 00:34:03;;;;;;;;;;;;;;;15.55;52.96;102952.41;2105670;28;20383;-53
2023/01/21 00:35:06;;;;;;;;;;;;;;;15.56;52.96;102953.19;2114516;28;19923;-52
2023/01/21 00:36:08;;;;;;;;;;;;;;;15.56;52.94;102950.47;2114984;28;19965;-53
2023/01/21 00:37:11;;;;;;;;;;;;;;;15.55;52.88;102952.41;2114361;28;20041;-51
2023/01/21 00:38:13;;;;;;;;;;;;;;;15.55;52.71;102952.41;2114205;28;19936;-51
2023/01/21 00:39:15;;;;;;;;;;;;;;;15.55;52.96;102952.41;2114573;28;20294;-51
2023/01/21 00:40:18;;;;;;;;;;;;;;;15.55;52.87;102957.84;2114298;28;20331;-54
2023/01/21 00:41:23;;;;;;;;;;;;;;;15.55;52.74;102957.84;2115199;28;19931;-52
2023/01/21 00:42:26;;;;;;;;;;;;;;;15.55;52.64;102957.03;2114676;28;19928;-53
2023/01/21 00:43:28;;;;;;;;;;;;;;;15.55;52.78;102962.50;2113128;28;19942;-53
2023/01/21 00:44:31;;;;;;;;;;;;;;;15.55;52.73;102957.84;2115070;28;19927;-55
2023/01/21 00:45:32;;;;;;;;;;;;;;;15.55;52.90;102962.50;2114764;28;20386;-53
2023/01/21 00:46:35;;;;;;;;;;;;;;;15.55;52.69;102971.47;2115845;28;19927;-53
2023/01/21 00:47:37;;;;;;;;;;;;;;;15.55;52.89;102963.28;2113883;28;20017;-50
2023/01/21 00:48:40;;;;;;;;;;;;;;;15.54;52.68;102967.13;2114717;28;20042;-54
2023/01/21 00:49:41;;;;;;;;;;;;;;;15.53;52.89;102968.25;2113546;28;19928;-52
2023/01/21 00:50:44;;;;;;;;;;;;;;;15.54;53.11;102969.06;2114869;27;19928;-51
2023/01/21 00:51:46;;;;;;;;;;;;;;;15.54;52.88;102974.50;2116550;27;20419;-52
2023/01/21 00:52:48;;;;;;;;;;;;;;;15.54;52.80;102980.72;2115382;27;19967;-52
2023/01/21 00:53:51;;;;;;;;;;;;;;;15.53;53.21;102973.69;2116257;27;19935;-52
2023/01/21 00:54:52;;;;;;;;;;;;;;;15.54;52.72;102969.84;2116318;27;20302;-52
2023/01/21 00:56:00;;;;;;;;;;;;;;;15.55;52.94;102978.81;2117186;27;20394;-52
2023/01/21 00:57:01;;;;;;;;;;;;;;;15.54;52.90;102972.56;2116593;27;19980;-54
2023/01/21 00:58:04;;;;;;;;;;;;;;;15.53;52.75;102976.41;2115241;27;19939;-53
2023/01/21 00:59:06;;;;;;;;;;;;;;;15.54;52.72;102978.00;2106349;28;19934;-53
2023/01/21 01:00:09;;;;;;;;;;;;;;;15.53;52.64;102978.34;2106419;28;20428;-54
2023/01/21 01:01:12;;;;;;;;;;;;;;;15.53;52.78;102979.16;2114871;27;19927;-53
2023/01/21 01:02:14;;;;;;;;;;;;;;;15.53;52.80;102981.88;2116864;27;19974;-53
2023/01/21 01:03:16;;;;;;;;;;;;;;;15.52;52.88;102977.56;2116062;27;19928;-53
2023/01/21 01:04:19;;;;;;;;;;;;;;;15.52;52.87;102977.56;2116524;27;19934;-54
2023/01/21 01:05:21;;;;;;;;;;;;;;;15.53;52.77;102981.88;2116587;27;19966;-53
2023/01/21 01:06:23;;;;;;;;;;;;;;;15.52;52.90;102982.19;2116063;27;20387;-52
2023/01/21 01:07:25;;;;;;;;;;;;;;;15.53;52.85;102984.59;2115784;27;19934;-53
2023/01/21 01:08:28;;;;;;;;;;;;;;;15.53;52.69;102981.88;2116128;27;20284;-53
2023/01/21 01:09:30;;;;;;;;;;;;;;;15.53;52.85;102979.16;2116429;27;19942;-54
2023/01/21 01:10:32;;;;;;;;;;;;;;;15.52;52.69;102977.56;2115690;27;20306;-54
2023/01/21 01:11:35;;;;;;;;;;;;;;;15.53;52.80;102984.59;2117175;27;19938;-54
2023/01/21 01:12:38;;;;;;;;;;;;;;;15.51;52.89;102978.66;2116018;27;19927;-54
2023/01/21 01:13:39;;;;;;;;;;;;;;;15.52;52.86;102988.44;2115998;27;19935;-53
2023/01/21 01:14:42;;;;;;;;;;;;;;;15.52;52.81;102982.19;2114986;27;19932;-52
2023/01/21 01:15:44;;;;;;;;;;;;;;;15.52;52.76;102991.16;2115531;27;19932;-54
2023/01/21 01:16:46;;;;;;;;;;;;;;;15.52;52.63;102985.72;2116395;27;19935;-53
2023/01/21 01:17:48;;;;;;;;;;;;;;;15.51;52.69;102989.56;2115227;27;19934;-54
2023/01/21 01:18:51;;;;;;;;;;;;;;;15.51;52.71;102995.00;2114252;27;20296;-53
2023/01/21 01:19:53;;;;;;;;;;;;;;;15.51;52.78;102988.75;2116135;27;20285;-52
2023/01/21 01:20:56;;;;;;;;;;;;;;;15.51;52.80;102989.56;2109366;28;19934;-53
2023/01/21 01:21:58;;;;;;;;;;;;;;;15.51;52.74;102995.00;2107842;28;19932;-54
2023/01/21 01:23:00;;;;;;;;;;;;;;;15.50;52.69;102998.84;2116551;27;19927;-52
2023/01/21 01:24:02;;;;;;;;;;;;;;;15.51;52.80;102999.63;2116157;27;19938;-53
2023/01/21 01:25:04;;;;;;;;;;;;;;;15.51;52.69;102997.72;2115735;27;19932;-52
2023/01/21 01:26:07;;;;;;;;;;;;;;;15.51;52.71;102994.19;2116028;27;19934;-53
2023/01/21 01:27:10;;;;;;;;;;;;;;;15.50;52.62;103001.56;2116266;27;20295;-54
2023/01/21 01:28:13;;;;;;;;;;;;;;;15.51;52.93;102999.63;2115681;27;19927;-52
2023/01/21 01:29:17;;;;;;;;;;;;;;;15.50;52.80;102993.41;2116593;27;19927;-54
2023/01/21 01:30:18;;;;;;;;;;;;;;;15.50;52.82;102995.31;2115842;27;19934;-52
2023/01/21 01:31:21;;;;;;;;;;;;;;;15.50;52.71;102998.84;2116602;27;19934;-52
2023/01/21 01:32:23;;;;;;;;;;;;;;;15.50;52.83;103000.75;2115319;27;19928;-53
2023/01/21 01:33:26;;;;;;;;;;;;;;;15.49;52.64;102999.94;2115406;27;19943;-51
2023/01/21 01:34:27;;;;;;;;;;;;;;;15.49;52.81;103008.13;2116064;27;19938;-51
2023/01/21 01:35:30;;;;;;;;;;;;;;;15.49;52.75;103010.06;2115251;27;19951;-56
2023/01/21 01:36:33;;;;;;;;;;;;;;;15.49;52.82;103007.34;2115946;27;19950;-52
2023/01/21 01:37:34;;;;;;;;;;;;;;;15.49;52.83;103013.56;2116665;27;19939;-51
2023/01/21 01:38:37;;;;;;;;;;;;;;;15.49;52.82;103012.78;2115535;27;19927;-52
2023/01/21 01:39:38;;;;;;;;;;;;;;;15.49;52.84;103010.06;2115432;27;19927;-52
2023/01/21 01:40:41;;;;;;;;;;;;;;;15.49;52.73;103020.94;2116805;27;19927;-50
2023/01/21 01:41:44;;;;;;;;;;;;;;;15.48;52.64;103014.69;2115476;27;19927;-53
2023/01/21 01:42:47;;;;;;;;;;;;;;;15.49;52.67;103015.50;2115905;27;19935;-52
2023/01/21 01:43:54;;;;;;;;;;;;;;;15.49;52.80;103024.44;2115247;27;19932;-52
2023/01/21 01:44:59;;;;;;;;;;;;;;;15.48;52.86;103019.34;2115943;27;19927;-53
2023/01/21 01:46:01;;;;;;;;;;;;;;;15.48;52.72;103022.88;2116801;27;19943;-51
2023/01/21 01:47:03;;;;;;;;;;;;;;;15.48;52.72;103025.59;2115760;27;19970;-53
2023/01/21 01:48:06;;;;;;;;;;;;;;;15.48;52.72;103025.59;2115367;27;19931;-53
2023/01/21 01:49:11;;;;;;;;;;;;;;;15.48;52.78;103032.94;2115495;27;19927;-53
2023/01/21 01:50:14;;;;;;;;;;;;;;;15.47;52.69;103020.47;2115816;27;19934;-53
2023/01/21 01:51:19;;;;;;;;;;;;;;;15.47;52.61;103032.16;2116224;27;19934;-52
2023/01/21 01:52:21;;;;;;;;;;;;;;;15.46;52.73;103027.03;2115446;27;20566;-53
2023/01/21 01:53:24;;;;;;;;;;;;;;;15.47;52.78;103034.88;2115888;27;19928;-51
2023/01/21 01:54:28;;;;;;;;;;;;;;;15.47;52.68;103039.53;2114267;27;19924;-52
2023/01/21 01:55:32;;;;;;;;;;;;;;;15.46;52.66;103046.88;2115664;27;19928;-53
2023/01/21 01:56:34;;;;;;;;;;;;;;;15.47;52.79;103042.25;2116479;27;19928;-54
2023/01/21 01:57:38;;;;;;;;;;;;;;;15.46;52.23;103044.16;2116329;27;20010;-53
2023/01/21 01:58:41;;;;;;;;;;;;;;;15.46;52.69;103040.66;2113893;27;19935;-54
2023/01/21 01:59:45;;;;;;;;;;;;;;;15.46;52.63;103046.09;2114876;27;20374;-55
2023/01/21 02:00:46;;;;;;;;;;;;;;;15.45;52.70;103045.28;2115652;27;20398;-54
2023/01/21 02:01:49;;;;;;;;;;;;;;;15.46;52.71;103054.25;2116619;27;19970;-54
2023/01/21 02:04:12;;;;;;;;;;;;;;;15.46;52.64;103060.50;2114093;27;19928;-50
2023/01/21 02:05:13;;;;;;;;;;;;;;;15.46;52.93;103057.00;2106767;28;19928;-53
2023/01/21 02:06:17;;;;;;;;;;;;;;;15.45;52.72;103061.63;2106726;28;19940;-53
2023/01/21 02:07:19;;;;;;;;;;;;;;;15.45;52.66;103061.63;2113981;27;19928;-53
2023/01/21 02:08:23;;;;;;;;;;;;;;;15.45;52.82;103056.19;2115518;27;19938;-53
2023/01/21 02:09:28;;;;;;;;;;;;;;;15.46;52.74;103063.22;2108184;28;19935;-52
2023/01/21 02:10:33;;;;;;;;;;;;;;;15.45;52.78;103060.81;2100636;28;19929;-52
2023/01/21 02:11:36;;;;;;;;;;;;;;;15.44;52.65;103060.03;2107772;28;20332;-54
2023/01/21 02:12:40;;;;;;;;;;;;;;;15.43;52.61;103050.25;2115200;27;19927;-51
2023/01/21 02:13:46;;;;;;;;;;;;;;;15.44;52.78;103057.31;2115162;27;20469;-51
2023/01/21 02:14:48;;;;;;;;;;;;;;;15.44;52.87;103054.59;2115391;27;19935;-51
2023/01/21 02:15:59;;;;;;;;;;;;;;;15.44;52.72;103057.31;2115287;27;20049;-51
2023/01/21 02:17:06;;;;;;;;;;;;;;;15.43;52.86;103058.41;2115027;27;19942;-52
2023/01/21 02:18:14;;;;;;;;;;;;;;;15.43;52.59;103055.69;2114767;27;19931;-53
2023/01/21 02:19:40;;;;;;;;;;;;;;;15.43;52.58;103050.25;2116249;27;19932;-53
2023/01/21 02:21:02;;;;;;;;;;;;;;;15.43;52.64;103057.63;2105439;28;19932;-52
2023/01/21 02:22:09;;;;;;;;;;;;;;;15.42;52.68;103054.09;2101648;27;20446;-52
2023/01/21 02:23:14;;;;;;;;;;;;;;;15.41;52.81;103060.66;2113973;27;20396;-52
2023/01/21 02:24:24;;;;;;;;;;;;;;;15.42;52.78;103054.09;2116391;27;20393;-53
2023/01/21 02:25:44;;;;;;;;;;;;;;;15.41;52.71;103055.22;2114874;27;19935;-52
2023/01/21 02:27:04;;;;;;;;;;;;;;;15.41;52.88;103060.66;2115373;27;19931;-53
2023/01/21 02:28:27;;;;;;;;;;;;;;;15.41;52.71;103049.78;2115839;27;19932;-53
2023/01/21 02:29:44;;;;;;;;;;;;;;;15.41;52.65;103060.66;2116267;27;19939;-53
2023/01/21 02:30:55;;;;;;;;;;;;;;;15.40;52.55;103060.97;2112376;27;19939;-53
2023/01/21 02:32:04;;;;;;;;;;;;;;;15.40;52.65;103056.31;2115203;27;19928;-53
2023/01/21 02:33:15;;;;;;;;;;;;;;;15.40;52.80;103053.59;2115081;27;19931;-53
2023/01/21 02:34:24;;;;;;;;;;;;;;;15.41;52.55;103060.66;2114912;27;19927;-54
2023/01/21 02:35:30;;;;;;;;;;;;;;;15.40;52.56;103059.03;2114749;27;20314;-52
2023/01/21 02:36:42;;;;;;;;;;;;;;;15.41;52.75;103066.13;2114719;27;19927;-53
2023/01/21 02:37:47;;;;;;;;;;;;;;;15.40;52.60;103066.41;2113693;27;19927;-53
2023/01/21 02:38:57;;;;;;;;;;;;;;;15.40;52.61;103066.41;2116190;27;19976;-51
2023/01/21 02:40:05;;;;;;;;;;;;;;;15.39;52.60;103073.78;2105716;28;19924;-53
2023/01/21 02:41:13;;;;;;;;;;;;;;;15.40;52.63;103071.84;2106862;27;20559;-53
2023/01/21 02:42:19;;;;;;;;;;;;;;;15.39;52.70;103073.78;2115681;27;19938;-51
2023/01/21 02:43:27;;;;;;;;;;;;;;;15.39;52.72;103068.34;2113959;27;19928;-51
2023/01/21 02:44:32;;;;;;;;;;;;;;;15.39;52.77;103078.41;2114029;27;20390;-53
2023/01/21 02:45:38;;;;;;;;;;;;;;;15.38;52.64;103071.34;2115607;27;19927;-51
2023/01/21 02:46:42;;;;;;;;;;;;;;;15.38;52.56;103077.63;2115773;27;19924;-52
2023/01/21 02:47:49;;;;;;;;;;;;;;;15.38;52.67;103074.88;2115119;27;19950;-52
2023/01/21 02:48:55;;;;;;;;;;;;;;;15.38;52.58;103077.63;2115360;27;19935;-52
2023/01/21 02:50:00;;;;;;;;;;;;;;;15.38;52.70;103077.63;2115539;27;19932;-52
2023/01/21 02:51:03;;;;;;;;;;;;;;;15.38;52.73;103083.06;2114705;27;19949;-52
2023/01/21 02:52:06;;;;;;;;;;;;;;;15.38;52.72;103076.81;2115322;27;19942;-52
2023/01/21 02:53:20;;;;;;;;;;;;;;;15.37;52.58;103073.25;2115256;27;19928;-53
2023/01/21 02:54:41;;;;;;;;;;;;;;;15.37;52.57;103078.72;2115062;27;19954;-53
2023/01/21 02:55:44;;;;;;;;;;;;;;;15.37;52.54;103084.16;2115072;27;19932;-52
2023/01/21 02:56:45;;;;;;;;;;;;;;;15.37;52.59;103081.44;2105564;28;19927;-53
2023/01/21 02:57:49;;;;;;;;;;;;;;;15.37;52.48;103081.44;2099791;28;19931;-53
2023/01/21 02:58:52;;;;;;;;;;;;;;;15.36;52.66;103093.44;2106865;27;19928;-51
2023/01/21 02:59:56;;;;;;;;;;;;;;;15.35;52.76;103089.09;2115171;27;20294;-54
2023/01/21 03:01:05;;;;;;;;;;;;;;;15.36;52.74;103095.38;2114414;27;19966;-51
2023/01/21 03:02:11;;;;;;;;;;;;;;;15.36;52.56;103090.72;2114279;27;20351;-53
2023/01/21 03:03:32;;;;;;;;;;;;;;;15.35;52.42;103097.28;2114977;27;19950;-54
2023/01/21 03:04:46;;;;;;;;;;;;;;;15.36;52.54;103093.44;2115186;27;19950;-52
2023/01/21 03:05:56;;;;;;;;;;;;;;;15.35;52.56;103094.56;2107257;28;19939;-52
2023/01/21 03:07:04;;;;;;;;;;;;;;;15.35;52.56;103094.56;2108837;27;19928;-52
2023/01/21 03:08:11;;;;;;;;;;;;;;;15.35;52.72;103093.78;2115204;27;19950;-54
2023/01/21 03:09:18;;;;;;;;;;;;;;;15.35;52.48;103100.00;2115913;27;19928;-52
2023/01/21 03:10:27;;;;;;;;;;;;;;;15.35;52.61;103097.28;2115756;27;20628;-50
2023/01/21 03:11:29;;;;;;;;;;;;;;;15.34;52.54;103092.97;2114810;27;19932;-49
2023/01/21 03:12:37;;;;;;;;;;;;;;;15.34;52.48;103103.03;2115488;27;19934;-52
2023/01/21 03:18:07;;;;;;;;;;;;;;;15.34;52.82;103100.31;2090412;28;19933;-51
2023/01/21 03:19:11;;;;;;;;;;;;;;;15.34;52.68;103097.59;2083452;28;19929;-53
2023/01/21 03:20:19;;;;;;;;;;;;;;;15.33;52.62;103094.09;2084193;28;19929;-54
2023/01/21 03:21:23;;;;;;;;;;;;;;;15.33;52.57;103087.84;2090197;28;20023;-52
2023/01/21 03:22:28;;;;;;;;;;;;;;;15.33;52.67;103096.81;2089999;28;20418;-53
2023/01/21 03:23:33;;;;;;;;;;;;;;;15.33;52.50;103096.81;2094858;27;19929;-53
2023/01/21 03:24:38;;;;;;;;;;;;;;;15.32;52.63;103092.47;2115116;27;19927;-54
2023/01/21 03:25:41;;;;;;;;;;;;;;;15.32;52.57;103095.19;2114978;27;19928;-54
2023/01/21 03:26:44;;;;;;;;;;;;;;;15.32;52.50;103097.91;2113814;27;20399;-53
2023/01/21 03:27:47;;;;;;;;;;;;;;;15.31;52.41;103093.59;2114806;27;19939;-51
2023/01/21 03:28:51;;;;;;;;;;;;;;;15.32;52.68;103094.41;2115181;27;19924;-53
2023/01/21 03:29:56;;;;;;;;;;;;;;;15.31;52.73;103101.75;2114907;27;19927;-53
2023/01/21 03:31:01;;;;;;;;;;;;;;;15.32;52.54;103102.56;2115278;27;20387;-54
2023/01/21 03:32:07;;;;;;;;;;;;;;;15.31;52.67;103093.59;2114713;27;19931;-53
2023/01/21 03:33:09;;;;;;;;;;;;;;;15.31;52.64;103106.41;2114323;27;19931;-52
2023/01/21 03:34:14;;;;;;;;;;;;;;;15.30;52.64;103105.59;2115454;27;20250;-51
2023/01/21 03:35:20;;;;;;;;;;;;;;;15.32;52.70;103110.75;2114612;27;20011;-53
2023/01/21 03:36:33;;;;;;;;;;;;;;;15.30;52.61;103107.53;2114229;27;19951;-53
2023/01/21 03:37:37;;;;;;;;;;;;;;;15.30;52.46;103108.31;2115166;27;20393;-50
2023/01/21 03:38:43;;;;;;;;;;;;;;;15.30;52.70;103116.47;2114943;27;19931;-52
2023/01/21 03:39:47;;;;;;;;;;;;;;;15.29;52.57;103117.59;2114555;27;19924;-50
2023/01/21 03:40:54;;;;;;;;;;;;;;;15.30;52.42;103111.03;2115408;27;19927;-53
2023/01/21 03:41:56;;;;;;;;;;;;;;;15.30;52.61;103119.19;2115189;27;19927;-51
2023/01/21 03:42:58;;;;;;;;;;;;;;;15.29;52.75;103117.59;2115255;27;20495;-53
2023/01/21 03:44:00;;;;;;;;;;;;;;;15.29;52.63;103117.59;2113344;28;19927;-54
2023/01/21 03:45:03;;;;;;;;;;;;;;;15.30;52.36;103118.41;2115078;27;19981;-49
2023/01/21 03:46:08;;;;;;;;;;;;;;;15.29;52.35;103117.59;2113881;27;19927;-51
2023/01/21 03:47:17;;;;;;;;;;;;;;;15.30;52.55;103118.41;2115152;27;19928;-52
2023/01/21 03:48:23;;;;;;;;;;;;;;;15.29;52.52;103123.03;2115746;27;20309;-52
2023/01/21 03:49:28;;;;;;;;;;;;;;;15.28;52.59;103117.91;2115189;27;19934;-53
2023/01/21 03:50:34;;;;;;;;;;;;;;;15.28;52.43;103120.63;2114293;27;20310;-52
2023/01/21 03:51:39;;;;;;;;;;;;;;;15.28;52.50;103121.44;2115709;27;20529;-53
2023/01/21 03:52:42;;;;;;;;;;;;;;;15.29;52.46;103128.47;2114413;27;19934;-53
2023/01/21 03:53:45;;;;;;;;;;;;;;;15.28;52.52;103116.00;2114930;27;19935;-53
2023/01/21 03:54:47;;;;;;;;;;;;;;;15.28;52.71;103120.63;2114640;27;19928;-54
2023/01/21 03:55:49;;;;;;;;;;;;;;;15.28;52.52;103113.28;2114596;27;19931;-54
2023/01/21 03:56:51;;;;;;;;;;;;;;;15.28;52.55;103120.63;2114018;27;19927;-52
2023/01/21 03:57:54;;;;;;;;;;;;;;;15.27;52.55;103113.59;2115401;27;19935;-53
2023/01/21 03:58:55;;;;;;;;;;;;;;;15.27;52.47;103119.84;2114517;27;19928;-52
2023/01/21 03:59:58;;;;;;;;;;;;;;;15.26;52.45;103120.97;2115453;27;20406;-53
2023/01/21 04:01:00;;;;;;;;;;;;;;;15.26;52.36;103115.50;2114323;27;19928;-53
2023/01/21 04:02:03;;;;;;;;;;;;;;;15.26;52.68;103118.25;2114983;28;19932;-52
2023/01/21 04:03:04;;;;;;;;;;;;;;;15.27;52.40;103124.50;2115078;28;20007;-54
2023/01/21 04:04:07;;;;;;;;;;;;;;;15.26;52.54;103120.97;2113896;27;19956;-53
2023/01/21 04:05:09;;;;;;;;;;;;;;;15.26;52.38;103118.25;2114863;27;21066;-54
2023/01/21 04:06:15;;;;;;;;;;;;;;;15.26;52.49;103129.13;2115182;28;19928;-53
2023/01/21 04:07:16;;;;;;;;;;;;;;;15.26;52.56;103118.25;2115169;27;19934;-53
2023/01/21 04:08:19;;;;;;;;;;;;;;;15.26;52.54;103115.50;2114862;27;19928;-52
2023/01/21 04:09:20;;;;;;;;;;;;;;;15.25;52.64;103111.19;2113580;27;19928;-54
2023/01/21 04:10:23;;;;;;;;;;;;;;;15.25;52.57;103110.38;2114195;28;19931;-53
2023/01/21 04:11:24;;;;;;;;;;;;;;;15.25;52.62;103111.19;2115388;27;19971;-55
2023/01/21 04:12:27;;;;;;;;;;;;;;;15.25;52.60;103116.66;2114882;28;19966;-51
2023/01/21 04:13:28;;;;;;;;;;;;;;;15.25;52.65;103116.66;2103820;28;19932;-54
2023/01/21 04:14:31;;;;;;;;;;;;;;;15.25;52.47;103116.66;2105691;28;20716;-54
2023/01/21 04:15:33;;;;;;;;;;;;;;;15.25;52.62;103122.09;2114817;28;20389;-54
2023/01/21 04:16:35;;;;;;;;;;;;;;;15.24;52.60;103115.03;2115586;28;19931;-54
2023/01/21 04:17:37;;;;;;;;;;;;;;;15.24;52.38;103123.19;2115238;28;19927;-54
2023/01/21 04:18:39;;;;;;;;;;;;;;;15.25;52.57;103129.44;2114520;28;19935;-53
2023/01/21 04:19:41;;;;;;;;;;;;;;;15.24;52.50;103123.19;2114873;28;19932;-54
2023/01/21 04:20:45;;;;;;;;;;;;;;;15.23;52.53;103135.19;2114651;28;19932;-53
2023/01/21 04:21:48;;;;;;;;;;;;;;;15.24;52.64;103130.56;2114211;28;20378;-52
2023/01/21 04:22:51;;;;;;;;;;;;;;;15.24;52.57;103130.56;2114954;28;19927;-54
2023/01/21 04:23:53;;;;;;;;;;;;;;;15.23;52.44;103134.38;2115052;28;20660;-53
2023/01/21 04:24:55;;;;;;;;;;;;;;;15.23;52.60;103132.47;2115402;27;19927;-52
2023/01/21 04:25:57;;;;;;;;;;;;;;;15.24;52.47;103138.72;2116363;27;19931;-53
2023/01/21 04:26:59;;;;;;;;;;;;;;;15.23;52.37;103129.75;2116956;27;20381;-53
2023/01/21 04:28:01;;;;;;;;;;;;;;;15.23;52.69;103132.47;2116988;27;20401;-53
2023/01/21 04:29:03;;;;;;;;;;;;;;;15.24;52.51;103134.06;2116265;27;19939;-54
2023/01/21 04:30:06;;;;;;;;;;;;;;;15.22;52.37;103133.59;2115488;27;19923;-54
2023/01/21 04:31:08;;;;;;;;;;;;;;;15.22;52.66;103132.78;2115633;27;19934;-54
2023/01/21 04:32:10;;;;;;;;;;;;;;;15.22;52.43;103133.59;2116361;27;19931;-53
2023/01/21 04:33:13;;;;;;;;;;;;;;;15.22;52.36;103136.34;2115248;27;20402;-52
2023/01/21 04:34:15;;;;;;;;;;;;;;;15.21;52.41;103145.59;2116603;27;19927;-54
2023/01/21 04:35:18;;;;;;;;;;;;;;;15.22;52.47;103147.22;2116436;27;20388;-53
2023/01/21 04:36:20;;;;;;;;;;;;;;;15.21;52.50;103145.59;2116959;27;19931;-55
2023/01/21 04:37:23;;;;;;;;;;;;;;;15.21;52.41;103142.88;2117052;27;20338;-52
2023/01/21 04:38:26;;;;;;;;;;;;;;;15.21;52.49;103137.44;2116058;27;20298;-55
2023/01/21 04:39:28;;;;;;;;;;;;;;;15.21;52.51;103148.31;2116194;27;19943;-53
2023/01/21 04:40:31;;;;;;;;;;;;;;;15.21;52.47;103140.16;2117010;27;19927;-53
2023/01/21 04:41:32;;;;;;;;;;;;;;;15.20;52.59;103141.28;2116768;27;19927;-52
2023/01/21 04:42:35;;;;;;;;;;;;;;;15.21;52.49;103148.31;2106511;28;19927;-49
2023/01/21 04:43:36;;;;;;;;;;;;;;;15.20;52.36;103152.16;2107713;28;19935;-54
2023/01/21 04:44:39;;;;;;;;;;;;;;;15.21;52.47;103155.66;2116351;27;20381;-54
2023/01/21 04:45:40;;;;;;;;;;;;;;;15.21;52.40;103166.56;2117477;27;19932;-54
2023/01/21 04:46:43;;;;;;;;;;;;;;;15.20;52.61;103163.03;2116004;27;19927;-50
2023/01/21 04:47:45;;;;;;;;;;;;;;;15.21;52.57;103161.09;2116528;27;19974;-54
2023/01/21 04:48:48;;;;;;;;;;;;;;;15.19;52.40;103169.59;2116377;27;19928;-53
2023/01/21 04:49:51;;;;;;;;;;;;;;;15.20;52.59;103168.50;2116036;27;19924;-53
2023/01/21 04:50:54;;;;;;;;;;;;;;;15.19;52.47;103172.31;2116560;27;19935;-53
2023/01/21 04:51:55;;;;;;;;;;;;;;;15.19;52.43;103175.03;2116275;27;20014;-52
2023/01/21 04:52:59;;;;;;;;;;;;;;;15.20;52.41;103175.84;2115764;27;20310;-56
2023/01/21 04:54:01;;;;;;;;;;;;;;;15.19;52.40;103177.75;2115884;27;19931;-54
2023/01/21 04:55:04;;;;;;;;;;;;;;;15.19;52.66;103180.47;2116592;27;19951;-52
2023/01/21 04:56:06;;;;;;;;;;;;;;;15.19;52.54;103182.41;2116086;27;19928;-55
2023/01/21 04:57:09;;;;;;;;;;;;;;;15.19;52.53;103185.91;2117101;27;19931;-55
2023/01/21 04:58:11;;;;;;;;;;;;;;;15.19;52.47;103190.56;2116636;27;19931;-55
2023/01/21 04:59:13;;;;;;;;;;;;;;;15.19;52.42;103191.34;2116164;27;19935;-53
2023/01/21 05:00:16;;;;;;;;;;;;;;;15.19;52.48;103191.34;2117614;27;19928;-53
2023/01/21 05:01:18;;;;;;;;;;;;;;;15.18;52.34;103187.03;2115660;27;19927;-54
2023/01/21 05:02:20;;;;;;;;;;;;;;;15.18;52.59;103191.69;2116549;27;20003;-54
2023/01/21 05:03:23;;;;;;;;;;;;;;;15.18;52.48;103186.22;2116185;27;19931;-50
2023/01/21 05:04:24;;;;;;;;;;;;;;;15.18;52.53;103192.50;2114335;27;19931;-52
2023/01/21 05:05:27;;;;;;;;;;;;;;;15.18;52.49;103194.41;2116446;27;19935;-53
2023/01/21 05:06:29;;;;;;;;;;;;;;;15.18;52.42;103197.94;2106865;28;19938;-52
2023/01/21 05:07:31;;;;;;;;;;;;;;;15.17;52.43;103196.34;2107010;27;19927;-52
2023/01/21 05:08:34;;;;;;;;;;;;;;;15.17;52.28;103196.34;2115985;27;19928;-53
2023/01/21 05:09:37;;;;;;;;;;;;;;;15.18;52.37;103194.41;2115571;27;19989;-52
2023/01/21 05:10:38;;;;;;;;;;;;;;;15.17;52.60;103190.09;2117668;27;19928;-51
2023/01/21 05:11:41;;;;;;;;;;;;;;;15.17;52.44;103192.81;2115647;27;19927;-54
2023/01/21 05:12:42;;;;;;;;;;;;;;;15.17;52.64;103192.81;2116070;27;19934;-53
2023/01/21 05:13:45;;;;;;;;;;;;;;;15.17;52.50;103200.97;2115041;27;19935;-54
2023/01/21 05:14:47;;;;;;;;;;;;;;;15.16;52.46;103197.44;2115490;27;19927;-52
2023/01/21 05:15:49;;;;;;;;;;;;;;;15.17;52.40;103200.97;2115975;27;19928;-52
2023/01/21 05:16:52;;;;;;;;;;;;;;;15.17;52.48;103196.34;2106974;28;20224;-56
2023/01/21 05:17:53;;;;;;;;;;;;;;;15.17;52.44;103203.69;2107203;28;20336;-54
2023/01/21 05:18:56;;;;;;;;;;;;;;;15.15;52.50;103208.63;2115825;27;19934;-53
2023/01/21 05:19:58;;;;;;;;;;;;;;;15.16;52.42;103205.59;2116006;27;19931;-54
2023/01/21 05:21:00;;;;;;;;;;;;;;;15.15;52.55;103204.00;2115884;27;19928;-53
2023/01/21 05:22:02;;;;;;;;;;;;;;;15.16;52.51;103205.59;2115634;27;20816;-52
2023/01/21 05:23:04;;;;;;;;;;;;;;;15.16;52.38;103202.09;2116199;27;19931;-50
2023/01/21 05:24:08;;;;;;;;;;;;;;;15.15;52.38;103209.44;2114492;27;19931;-53
2023/01/21 05:25:10;;;;;;;;;;;;;;;15.15;52.45;103212.16;2115919;27;19934;-53
2023/01/21 05:26:12;;;;;;;;;;;;;;;15.15;52.47;103209.44;2115422;27;20386;-52
2023/01/21 05:27:14;;;;;;;;;;;;;;;15.15;52.45;103208.63;2116300;27;19935;-52
2023/01/21 05:28:16;;;;;;;;;;;;;;;15.14;52.28;103207.03;2115961;27;19934;-51
2023/01/21 05:29:18;;;;;;;;;;;;;;;15.15;52.61;103214.88;2117431;27;19928;-53
2023/01/21 05:30:20;;;;;;;;;;;;;;;15.14;52.51;103218.72;2116141;27;19931;-54
2023/01/21 05:31:24;;;;;;;;;;;;;;;15.16;52.50;103221.13;2115177;27;20288;-52
2023/01/21 05:32:25;;;;;;;;;;;;;;;15.14;52.37;103223.38;2115962;27;19928;-53
2023/01/21 05:33:31;;;;;;;;;;;;;;;15.14;52.41;103221.47;2115852;27;19927;-54